sensor_id;sensor_type;location;lat;lon;timestamp;temperature;humidity
4647;DHT22;2336;47.822;7.564;2023-06-10T03:49:20;18.50;99.90
4647;DHT22;2336;47.822;7.564;2023-06-10T03:51:52;18.40;99.90
4647;DHT22;2336;47.822;7.564;2023-06-10T03:54:19;18.40;99.90
4647;DHT22;2336;47.822;7.564;2023-06-10T03:56:45;18.40;99.90
4647;DHT22;2336;47.822;7.564;2023-06-10T03:59:13;18.40;99.90
4647;DHT22;2336;47.822;7.564;2023-06-10T04:01:40;18.30;99.90
4647;DHT22;2336;47.822;7.564;2023-06-10T04:04:07;18.40;99.90
4647;DHT22;2336;47.822;7.564;2023-06-10T04:06:35;18.30;99.90
4647;DHT22;2336;47.822;7.564;2023-06-10T04:09:02;18.30;99.90
4647;DHT22;2336;47.822;7.564;2023-06-10T04:11:30;18.30;99.90
4647;DHT22;2336;47.822;7.564;2023-06-10T04:13:57;18.30;99.90
4647;DHT22;2336;47.822;7.564;2023-06-10T04:16:24;18.20;99.90
4647;DHT22;2336;47.822;7.564;2023-06-10T04:18:51;18.20;99.90
4647;DHT22;2336;47.822;7.564;2023-06-10T04:21:17;18.20;99.90
4647;DHT22;2336;47.822;7.564;2023-06-10T04:23:45;18.20;99.90
4647;DHT22;2336;47.822;7.564;2023-06-10T04:26:12;18.20;99.90
4647;DHT22;2336;47.822;7.564;2023-06-10T04:28:39;18.20;99.90
4647;DHT22;2336;47.822;7.564;2023-06-10T04:31:05;18.20;99.90
4647;DHT22;2336;47.822;7.564;2023-06-10T04:33:32;18.20;99.90
4647;DHT22;2336;47.822;7.564;2023-06-10T04:35:59;18.30;99.90
4647;DHT22;2336;47.822;7.564;2023-06-10T04:38:26;18.30;99.90
4647;DHT22;2336;47.822;7.564;2023-06-10T04:40:54;18.40;99.90
4647;DHT22;2336;47.822;7.564;2023-06-10T04:43:21;18.40;99.90
4647;DHT22;2336;47.822;7.564;2023-06-10T04:45:47;18.40;99.90
4647;DHT22;2336;47.822;7.564;2023-06-10T04:48:14;18.40;99.90
4647;DHT22;2336;47.822;7.564;2023-06-10T04:50:41;18.40;99.90
4647;DHT22;2336;47.822;7.564;2023-06-10T04:53:08;18.40;99.90
4647;DHT22;2336;47.822;7.564;2023-06-10T04:55:34;18.40;99.90
4647;DHT22;2336;47.822;7.564;2023-06-10T04:58:03;18.50;99.90
4647;DHT22;2336;47.822;7.564;2023-06-10T05:00:29;18.50;99.90
4647;DHT22;2336;47.822;7.564;2023-06-10T05:02:56;18.50;99.90
4647;DHT22;2336;47.822;7.564;2023-06-10T05:05:23;18.60;99.90
4647;DHT22;2336;47.822;7.564;2023-06-10T05:07:49;18.60;99.90
4647;DHT22;2336;47.822;7.564;2023-06-10T05:10:16;18.70;99.90
4647;DHT22;2336;47.822;7.564;2023-06-10T05:12:43;18.70;99.90
4647;DHT22;2336;47.822;7.564;2023-06-10T05:15:11;18.70;99.90
4647;DHT22;2336;47.822;7.564;2023-06-10T05:17:38;18.70;99.90
4647;DHT22;2336;47.822;7.564;2023-06-10T05:20:06;18.80;99.90
4647;DHT22;2336;47.822;7.564;2023-06-10T05:22:33;18.80;99.90
4647;DHT22;2336;47.822;7.564;2023-06-10T05:25:01;18.90;99.90
4647;DHT22;2336;47.822;7.564;2023-06-10T05:27:28;19.00;99.90
4647;DHT22;2336;47.822;7.564;2023-06-10T05:29:55;19.00;99.90
4647;DHT22;2336;47.822;7.564;2023-06-10T05:32:23;19.00;99.90
4647;DHT22;2336;47.822;7.564;2023-06-10T05:34:50;19.10;99.90
4647;DHT22;2336;47.822;7.564;2023-06-10T05:37:16;19.10;99.90
4647;DHT22;2336;47.822;7.564;2023-06-10T05:39:43;19.10;99.90
4647;DHT22;2336;47.822;7.564;2023-06-10T05:42:10;19.20;99.90
4647;DHT22;2336;47.822;7.564;2023-06-10T05:44:36;19.20;99.90
4647;DHT22;2336;47.822;7.564;2023-06-10T05:47:04;19.20;99.90
4647;DHT22;2336;47.822;7.564;2023-06-10T05:49:32;19.30;99.90
4647;DHT22;2336;47.822;7.564;2023-06-10T05:51:58;19.30;99.90
4647;DHT22;2336;47.822;7.564;2023-06-10T05:54:25;19.30;99.90
4647;DHT22;2336;47.822;7.564;2023-06-10T05:56:52;19.30;99.90
4647;DHT22;2336;47.822;7.564;2023-06-10T05:59:19;19.40;99.90
4647;DHT22;2336;47.822;7.564;2023-06-10T06:01:45;19.50;99.90
4647;DHT22;2336;47.822;7.564;2023-06-10T06:04:12;19.50;99.90
4647;DHT22;2336;47.822;7.564;2023-06-10T06:06:40;19.50;99.90
4647;DHT22;2336;47.822;7.564;2023-06-10T06:09:07;19.60;99.90
4647;DHT22;2336;47.822;7.564;2023-06-10T06:11:34;19.60;99.90
4647;DHT22;2336;47.822;7.564;2023-06-10T06:14:01;19.60;99.90
4647;DHT22;2336;47.822;7.564;2023-06-10T06:16:28;19.60;99.90
4647;DHT22;2336;47.822;7.564;2023-06-10T06:18:54;19.70;99.90
4647;DHT22;2336;47.822;7.564;2023-06-10T06:21:21;19.70;99.90
4647;DHT22;2336;47.822;7.564;2023-06-10T06:23:49;19.80;99.90
4647;DHT22;2336;47.822;7.564;2023-06-10T06:26:16;19.70;99.90
4647;DHT22;2336;47.822;7.564;2023-06-10T06:28:43;19.80;99.90
4647;DHT22;2336;47.822;7.564;2023-06-10T06:31:09;19.80;99.90
4647;DHT22;2336;47.822;7.564;2023-06-10T06:33:36;19.90;99.90
4647;DHT22;2336;47.822;7.564;2023-06-10T06:36:03;19.90;99.90
4647;DHT22;2336;47.822;7.564;2023-06-10T06:38:30;20.00;99.90
4647;DHT22;2336;47.822;7.564;2023-06-10T06:40:58;20.10;99.90
4647;DHT22;2336;47.822;7.564;2023-06-10T06:43:28;20.10;99.90
4647;DHT22;2336;47.822;7.564;2023-06-10T06:45:55;20.10;99.90
4647;DHT22;2336;47.822;7.564;2023-06-10T06:48:22;20.10;99.90
4647;DHT22;2336;47.822;7.564;2023-06-10T06:50:49;20.10;99.90
4647;DHT22;2336;47.822;7.564;2023-06-10T06:53:16;20.20;99.90
4647;DHT22;2336;47.822;7.564;2023-06-10T06:55:42;20.30;99.90
4647;DHT22;2336;47.822;7.564;2023-06-10T06:58:10;20.30;99.90
4647;DHT22;2336;47.822;7.564;2023-06-10T07:00:37;20.30;99.90
4647;DHT22;2336;47.822;7.564;2023-06-10T07:03:04;20.30;99.90
4647;DHT22;2336;47.822;7.564;2023-06-10T07:05:30;20.40;99.90
4647;DHT22;2336;47.822;7.564;2023-06-10T07:07:57;20.50;99.90
4647;DHT22;2336;47.822;7.564;2023-06-10T07:10:25;20.50;99.90
4647;DHT22;2336;47.822;7.564;2023-06-10T07:12:52;20.60;99.90
4647;DHT22;2336;47.822;7.564;2023-06-10T07:15:20;20.60;99.90
4647;DHT22;2336;47.822;7.564;2023-06-10T07:17:47;20.60;99.90
4647;DHT22;2336;47.822;7.564;2023-06-10T07:20:14;20.70;99.90
4647;DHT22;2336;47.822;7.564;2023-06-10T07:22:41;20.80;99.90
4647;DHT22;2336;47.822;7.564;2023-06-10T07:25:08;20.80;99.90
4647;DHT22;2336;47.822;7.564;2023-06-10T07:27:35;20.80;99.90
4647;DHT22;2336;47.822;7.564;2023-06-10T07:30:02;20.90;99.90
4647;DHT22;2336;47.822;7.564;2023-06-10T07:32:31;20.90;99.90
4647;DHT22;2336;47.822;7.564;2023-06-10T07:34:58;21.00;99.90
4647;DHT22;2336;47.822;7.564;2023-06-10T07:37:24;21.00;99.90
4647;DHT22;2336;47.822;7.564;2023-06-10T07:39:51;21.00;99.90
4647;DHT22;2336;47.822;7.564;2023-06-10T07:42:18;21.10;99.90
4647;DHT22;2336;47.822;7.564;2023-06-10T07:44:45;21.10;99.90
4647;DHT22;2336;47.822;7.564;2023-06-10T07:47:11;21.20;99.90
4647;DHT22;2336;47.822;7.564;2023-06-10T07:49:39;21.20;99.90
4647;DHT22;2336;47.822;7.564;2023-06-10T07:52:07;21.30;99.90
4647;DHT22;2336;47.822;7.564;2023-06-10T07:54:34;21.40;99.90
4647;DHT22;2336;47.822;7.564;2023-06-10T07:57:01;21.40;99.90
4647;DHT22;2336;47.822;7.564;2023-06-10T07:59:28;21.40;99.90
4647;DHT22;2336;47.822;7.564;2023-06-10T08:01:54;21.50;99.90
4647;DHT22;2336;47.822;7.564;2023-06-10T08:04:21;21.70;99.90
4647;DHT22;2336;47.822;7.564;2023-06-10T08:06:49;21.70;99.90
4647;DHT22;2336;47.822;7.564;2023-06-10T08:09:16;21.80;99.90
4647;DHT22;2336;47.822;7.564;2023-06-10T08:11:43;21.80;99.90
4647;DHT22;2336;47.822;7.564;2023-06-10T08:14:10;21.90;99.90
4647;DHT22;2336;47.822;7.564;2023-06-10T08:16:37;22.10;99.90
4647;DHT22;2336;47.822;7.564;2023-06-10T08:19:03;22.10;99.90
4647;DHT22;2336;47.822;7.564;2023-06-10T08:21:30;22.20;99.90
4647;DHT22;2336;47.822;7.564;2023-06-10T08:23:58;22.20;99.90
4647;DHT22;2336;47.822;7.564;2023-06-10T08:26:25;22.20;99.90
4647;DHT22;2336;47.822;7.564;2023-06-10T08:28:52;22.20;99.90
4647;DHT22;2336;47.822;7.564;2023-06-10T08:31:20;22.40;99.90
4647;DHT22;2336;47.822;7.564;2023-06-10T08:33:46;22.30;99.90
4647;DHT22;2336;47.822;7.564;2023-06-10T08:36:13;22.40;99.90
4647;DHT22;2336;47.822;7.564;2023-06-10T08:38:40;22.40;99.90
4647;DHT22;2336;47.822;7.564;2023-06-10T08:41:09;22.50;99.90
4647;DHT22;2336;47.822;7.564;2023-06-10T08:43:41;22.60;99.90
4647;DHT22;2336;47.822;7.564;2023-06-10T08:46:09;22.80;99.90
4647;DHT22;2336;47.822;7.564;2023-06-10T08:48:42;22.80;99.90
4647;DHT22;2336;47.822;7.564;2023-06-10T08:51:10;22.90;99.90
4647;DHT22;2336;47.822;7.564;2023-06-10T08:53:40;23.00;99.90
4647;DHT22;2336;47.822;7.564;2023-06-10T08:56:09;23.00;99.90
4647;DHT22;2336;47.822;7.564;2023-06-10T08:58:37;23.00;99.90
4647;DHT22;2336;47.822;7.564;2023-06-10T09:01:07;23.10;99.90
4647;DHT22;2336;47.822;7.564;2023-06-10T09:03:35;23.20;99.90
4647;DHT22;2336;47.822;7.564;2023-06-10T09:06:05;23.20;99.90
4647;DHT22;2336;47.822;7.564;2023-06-10T09:08:33;23.30;99.90
4647;DHT22;2336;47.822;7.564;2023-06-10T09:11:00;23.30;99.90
4647;DHT22;2336;47.822;7.564;2023-06-10T09:13:29;23.30;99.90
4647;DHT22;2336;47.822;7.564;2023-06-10T09:15:56;23.40;99.90
4647;DHT22;2336;47.822;7.564;2023-06-10T09:18:26;23.40;99.90
4647;DHT22;2336;47.822;7.564;2023-06-10T09:20:53;23.60;99.90
4647;DHT22;2336;47.822;7.564;2023-06-10T09:23:19;23.70;99.90
4647;DHT22;2336;47.822;7.564;2023-06-10T09:25:46;23.70;99.90
4647;DHT22;2336;47.822;7.564;2023-06-10T09:28:21;23.70;99.90
4647;DHT22;2336;47.822;7.564;2023-06-10T09:30:50;23.80;99.90
4647;DHT22;2336;47.822;7.564;2023-06-10T09:33:27;23.90;99.90
4647;DHT22;2336;47.822;7.564;2023-06-10T09:35:54;24.20;99.90
4647;DHT22;2336;47.822;7.564;2023-06-10T09:38:22;24.20;99.90
4647;DHT22;2336;47.822;7.564;2023-06-10T09:40:50;24.40;99.90
4647;DHT22;2336;47.822;7.564;2023-06-10T09:43:17;24.50;99.90
4647;DHT22;2336;47.822;7.564;2023-06-10T09:45:47;24.60;99.90
4647;DHT22;2336;47.822;7.564;2023-06-10T09:48:15;24.70;99.90
4647;DHT22;2336;47.822;7.564;2023-06-10T09:50:42;24.70;99.90
4647;DHT22;2336;47.822;7.564;2023-06-10T09:53:10;24.70;99.90
4647;DHT22;2336;47.822;7.564;2023-06-10T09:55:38;25.00;99.90
4647;DHT22;2336;47.822;7.564;2023-06-10T09:58:05;25.00;99.90
4647;DHT22;2336;47.822;7.564;2023-06-10T10:00:32;25.10;99.90
4647;DHT22;2336;47.822;7.564;2023-06-10T10:02:59;25.10;99.90
4647;DHT22;2336;47.822;7.564;2023-06-10T10:05:28;24.90;99.90
4647;DHT22;2336;47.822;7.564;2023-06-10T10:07:56;24.90;99.90
4647;DHT22;2336;47.822;7.564;2023-06-10T10:10:23;24.80;99.90
4647;DHT22;2336;47.822;7.564;2023-06-10T10:12:54;24.90;99.90
4647;DHT22;2336;47.822;7.564;2023-06-10T10:15:24;24.90;99.90
4647;DHT22;2336;47.822;7.564;2023-06-10T10:17:53;24.90;99.90
4647;DHT22;2336;47.822;7.564;2023-06-10T10:20:26;24.90;99.90
4647;DHT22;2336;47.822;7.564;2023-06-10T10:22:57;25.00;99.90
4647;DHT22;2336;47.822;7.564;2023-06-10T10:25:28;25.10;99.90
4647;DHT22;2336;47.822;7.564;2023-06-10T10:27:58;25.30;99.90
4647;DHT22;2336;47.822;7.564;2023-06-10T10:30:30;25.30;99.90
4647;DHT22;2336;47.822;7.564;2023-06-10T10:33:06;25.30;99.90
4647;DHT22;2336;47.822;7.564;2023-06-10T10:35:38;25.30;99.80
4647;DHT22;2336;47.822;7.564;2023-06-10T10:38:10;25.40;99.90
4647;DHT22;2336;47.822;7.564;2023-06-10T10:40:37;25.50;99.60
4647;DHT22;2336;47.822;7.564;2023-06-10T10:43:05;25.70;99.50
4647;DHT22;2336;47.822;7.564;2023-06-10T10:45:33;25.60;98.90
4647;DHT22;2336;47.822;7.564;2023-06-10T10:48:07;25.60;99.00
4647;DHT22;2336;47.822;7.564;2023-06-10T10:50:37;25.70;98.40
4647;DHT22;2336;47.822;7.564;2023-06-10T10:53:05;25.70;98.30
4647;DHT22;2336;47.822;7.564;2023-06-10T10:55:33;25.80;98.30
4647;DHT22;2336;47.822;7.564;2023-06-10T10:58:03;26.00;98.20
4647;DHT22;2336;47.822;7.564;2023-06-10T11:00:31;26.10;97.60
4647;DHT22;2336;47.822;7.564;2023-06-10T11:03:00;26.30;97.30
4647;DHT22;2336;47.822;7.564;2023-06-10T11:05:37;26.00;97.00
4647;DHT22;2336;47.822;7.564;2023-06-10T11:08:04;26.10;97.90
4647;DHT22;2336;47.822;7.564;2023-06-10T11:10:34;26.20;97.50
4647;DHT22;2336;47.822;7.564;2023-06-10T11:13:05;26.30;97.80
4647;DHT22;2336;47.822;7.564;2023-06-10T11:15:34;26.50;97.10
4647;DHT22;2336;47.822;7.564;2023-06-10T11:18:08;26.50;97.20
4647;DHT22;2336;47.822;7.564;2023-06-10T11:20:55;26.70;96.80
4647;DHT22;2336;47.822;7.564;2023-06-10T11:23:40;26.70;97.00
4647;DHT22;2336;47.822;7.564;2023-06-10T11:29:07;26.80;96.20
4647;DHT22;2336;47.822;7.564;2023-06-10T11:31:45;26.90;96.50
4647;DHT22;2336;47.822;7.564;2023-06-10T11:34:13;26.90;96.20
4647;DHT22;2336;47.822;7.564;2023-06-10T11:36:41;26.90;95.40
4647;DHT22;2336;47.822;7.564;2023-06-10T11:39:10;27.10;96.20
4647;DHT22;2336;47.822;7.564;2023-06-10T11:41:39;27.20;94.10
4647;DHT22;2336;47.822;7.564;2023-06-10T11:44:09;27.10;93.90
4647;DHT22;2336;47.822;7.564;2023-06-10T11:46:36;26.90;94.90
4647;DHT22;2336;47.822;7.564;2023-06-10T11:49:03;26.90;94.10
4647;DHT22;2336;47.822;7.564;2023-06-10T11:51:33;27.00;94.30
4647;DHT22;2336;47.822;7.564;2023-06-10T11:54:01;27.10;94.40
4647;DHT22;2336;47.822;7.564;2023-06-10T11:56:29;27.40;94.80
4647;DHT22;2336;47.822;7.564;2023-06-10T11:58:58;27.60;94.10
4647;DHT22;2336;47.822;7.564;2023-06-10T12:01:29;27.60;94.30
4647;DHT22;2336;47.822;7.564;2023-06-10T12:04:02;27.70;93.70
4647;DHT22;2336;47.822;7.564;2023-06-10T12:06:38;28.10;93.40
4647;DHT22;2336;47.822;7.564;2023-06-10T12:09:05;28.10;92.70
4647;DHT22;2336;47.822;7.564;2023-06-10T12:11:31;27.70;91.70
4647;DHT22;2336;47.822;7.564;2023-06-10T12:14:00;27.70;91.90
4647;DHT22;2336;47.822;7.564;2023-06-10T12:16:28;27.60;91.30
4647;DHT22;2336;47.822;7.564;2023-06-10T12:19:01;27.70;91.20
4647;DHT22;2336;47.822;7.564;2023-06-10T12:21:29;28.10;92.00
4647;DHT22;2336;47.822;7.564;2023-06-10T12:24:04;28.10;92.10
4647;DHT22;2336;47.822;7.564;2023-06-10T12:26:39;28.20;91.40
4647;DHT22;2336;47.822;7.564;2023-06-10T12:29:21;28.30;91.80
4647;DHT22;2336;47.822;7.564;2023-06-10T12:31:57;28.40;91.20
4647;DHT22;2336;47.822;7.564;2023-06-10T12:34:35;28.50;91.00
4647;DHT22;2336;47.822;7.564;2023-06-10T12:37:03;28.30;90.80
4647;DHT22;2336;47.822;7.564;2023-06-10T12:39:31;28.30;91.30
4647;DHT22;2336;47.822;7.564;2023-06-10T12:41:58;28.20;91.00
4647;DHT22;2336;47.822;7.564;2023-06-10T12:44:34;28.20;90.70
4647;DHT22;2336;47.822;7.564;2023-06-10T12:47:06;27.90;90.10
4647;DHT22;2336;47.822;7.564;2023-06-10T12:49:34;27.80;89.60
4647;DHT22;2336;47.822;7.564;2023-06-10T12:52:01;27.70;90.20
4647;DHT22;2336;47.822;7.564;2023-06-10T12:54:28;27.60;90.10
4647;DHT22;2336;47.822;7.564;2023-06-10T12:56:55;27.60;90.60
4647;DHT22;2336;47.822;7.564;2023-06-10T12:59:22;27.90;91.20
4647;DHT22;2336;47.822;7.564;2023-06-10T13:01:54;28.20;90.80
4647;DHT22;2336;47.822;7.564;2023-06-10T13:04:21;28.60;91.00
4647;DHT22;2336;47.822;7.564;2023-06-10T13:06:48;28.80;89.40
4647;DHT22;2336;47.822;7.564;2023-06-10T13:09:15;28.60;88.30
4647;DHT22;2336;47.822;7.564;2023-06-10T13:11:42;28.20;88.80
4647;DHT22;2336;47.822;7.564;2023-06-10T13:14:10;28.20;88.70
4647;DHT22;2336;47.822;7.564;2023-06-10T13:16:37;27.90;89.00
4647;DHT22;2336;47.822;7.564;2023-06-10T13:19:06;27.90;88.70
4647;DHT22;2336;47.822;7.564;2023-06-10T13:21:33;27.80;88.10
4647;DHT22;2336;47.822;7.564;2023-06-10T13:24:00;27.80;88.60
4647;DHT22;2336;47.822;7.564;2023-06-10T13:26:27;28.00;89.50
4647;DHT22;2336;47.822;7.564;2023-06-10T13:28:53;28.10;87.20
4647;DHT22;2336;47.822;7.564;2023-06-10T13:31:23;28.10;87.40
4647;DHT22;2336;47.822;7.564;2023-06-10T13:33:51;28.20;86.90
4647;DHT22;2336;47.822;7.564;2023-06-10T13:36:20;28.20;87.60
4647;DHT22;2336;47.822;7.564;2023-06-10T13:38:46;28.40;85.70
4647;DHT22;2336;47.822;7.564;2023-06-10T13:41:14;28.60;86.60
4647;DHT22;2336;47.822;7.564;2023-06-10T13:43:40;28.90;85.50
4647;DHT22;2336;47.822;7.564;2023-06-10T13:46:07;29.20;85.30
4647;DHT22;2336;47.822;7.564;2023-06-10T13:48:34;29.40;83.80
4647;DHT22;2336;47.822;7.564;2023-06-10T13:51:01;29.50;84.00
4647;DHT22;2336;47.822;7.564;2023-06-10T13:53:30;29.30;82.30
4647;DHT22;2336;47.822;7.564;2023-06-10T13:55:56;29.20;82.90
4647;DHT22;2336;47.822;7.564;2023-06-10T13:58:23;29.20;83.40
4647;DHT22;2336;47.822;7.564;2023-06-10T14:00:50;29.00;81.70
4647;DHT22;2336;47.822;7.564;2023-06-10T14:03:16;29.10;83.40
4647;DHT22;2336;47.822;7.564;2023-06-10T14:05:43;29.00;81.30
4647;DHT22;2336;47.822;7.564;2023-06-10T14:08:10;29.10;81.40
4647;DHT22;2336;47.822;7.564;2023-06-10T14:10:38;29.40;80.10
4647;DHT22;2336;47.822;7.564;2023-06-10T14:13:05;29.70;80.30
4647;DHT22;2336;47.822;7.564;2023-06-10T14:15:32;30.00;78.90
4647;DHT22;2336;47.822;7.564;2023-06-10T14:17:59;30.00;78.30
4647;DHT22;2336;47.822;7.564;2023-06-10T14:20:26;29.80;78.80
4647;DHT22;2336;47.822;7.564;2023-06-10T14:22:56;29.60;78.30
4647;DHT22;2336;47.822;7.564;2023-06-10T14:25:23;29.40;77.20
4647;DHT22;2336;47.822;7.564;2023-06-10T14:27:51;29.20;78.00
4647;DHT22;2336;47.822;7.564;2023-06-10T14:30:18;29.10;78.00
4647;DHT22;2336;47.822;7.564;2023-06-10T14:32:45;29.10;77.60
4647;DHT22;2336;47.822;7.564;2023-06-10T14:35:11;29.10;76.90
4647;DHT22;2336;47.822;7.564;2023-06-10T14:37:38;29.00;76.90
4647;DHT22;2336;47.822;7.564;2023-06-10T14:40:06;29.10;79.10
4647;DHT22;2336;47.822;7.564;2023-06-10T14:42:33;29.30;77.40
4647;DHT22;2336;47.822;7.564;2023-06-10T14:45:01;29.50;78.10
4647;DHT22;2336;47.822;7.564;2023-06-10T14:47:27;29.60;76.70
4647;DHT22;2336;47.822;7.564;2023-06-10T14:49:54;29.70;77.00
4647;DHT22;2336;47.822;7.564;2023-06-10T14:52:21;29.70;75.40
4647;DHT22;2336;47.822;7.564;2023-06-10T14:54:48;29.60;75.70
4647;DHT22;2336;47.822;7.564;2023-06-10T14:57:14;29.60;75.70
4647;DHT22;2336;47.822;7.564;2023-06-10T14:59:41;29.70;74.60
4647;DHT22;2336;47.822;7.564;2023-06-10T15:02:09;29.60;74.50
4647;DHT22;2336;47.822;7.564;2023-06-10T15:04:36;29.70;74.20
4647;DHT22;2336;47.822;7.564;2023-06-10T15:07:03;29.70;72.90
4647;DHT22;2336;47.822;7.564;2023-06-10T15:09:29;29.50;74.40
4647;DHT22;2336;47.822;7.564;2023-06-10T15:11:57;29.60;74.20
4647;DHT22;2336;47.822;7.564;2023-06-10T15:14:24;29.70;75.30
4647;DHT22;2336;47.822;7.564;2023-06-10T15:16:52;30.00;75.70
4647;DHT22;2336;47.822;7.564;2023-06-10T15:19:20;29.90;75.90
4647;DHT22;2336;47.822;7.564;2023-06-10T15:21:46;29.60;74.80
4647;DHT22;2336;47.822;7.564;2023-06-10T15:24:13;29.50;75.30
4647;DHT22;2336;47.822;7.564;2023-06-10T15:26:40;29.40;75.40
4647;DHT22;2336;47.822;7.564;2023-06-10T15:29:07;29.50;76.30
4647;DHT22;2336;47.822;7.564;2023-06-10T15:31:34;29.60;74.70
4647;DHT22;2336;47.822;7.564;2023-06-10T15:34:01;29.60;74.30
4647;DHT22;2336;47.822;7.564;2023-06-10T15:36:30;29.60;74.50
4647;DHT22;2336;47.822;7.564;2023-06-10T15:39:01;29.70;75.00
4647;DHT22;2336;47.822;7.564;2023-06-10T15:41:28;30.00;75.30
4647;DHT22;2336;47.822;7.564;2023-06-10T15:43:56;30.20;74.70
4647;DHT22;2336;47.822;7.564;2023-06-10T15:46:25;30.10;73.50
4647;DHT22;2336;47.822;7.564;2023-06-10T15:48:51;30.10;73.00
4647;DHT22;2336;47.822;7.564;2023-06-10T15:51:18;30.20;72.30
4647;DHT22;2336;47.822;7.564;2023-06-10T15:53:47;30.20;72.80
4647;DHT22;2336;47.822;7.564;2023-06-10T15:56:13;30.10;71.00
4647;DHT22;2336;47.822;7.564;2023-06-10T15:58:40;30.00;72.60
4647;DHT22;2336;47.822;7.564;2023-06-10T16:01:07;30.00;71.70
4647;DHT22;2336;47.822;7.564;2023-06-10T16:03:34;30.00;71.00
4647;DHT22;2336;47.822;7.564;2023-06-10T16:06:01;29.90;71.30
4647;DHT22;2336;47.822;7.564;2023-06-10T16:08:28;29.70;71.50
4647;DHT22;2336;47.822;7.564;2023-06-10T16:10:56;29.60;72.00
4647;DHT22;2336;47.822;7.564;2023-06-10T16:13:23;29.70;72.70
4647;DHT22;2336;47.822;7.564;2023-06-10T16:15:49;29.70;71.60
4647;DHT22;2336;47.822;7.564;2023-06-10T16:18:16;29.60;71.70
4647;DHT22;2336;47.822;7.564;2023-06-10T16:20:43;29.70;71.20
4647;DHT22;2336;47.822;7.564;2023-06-10T16:23:10;29.70;70.90
4647;DHT22;2336;47.822;7.564;2023-06-10T16:25:36;29.80;71.30
4647;DHT22;2336;47.822;7.564;2023-06-10T16:28:05;29.80;71.70
4647;DHT22;2336;47.822;7.564;2023-06-10T16:30:32;29.80;73.60
4647;DHT22;2336;47.822;7.564;2023-06-10T16:32:59;29.70;73.10
4647;DHT22;2336;47.822;7.564;2023-06-10T16:35:25;29.70;72.90
4647;DHT22;2336;47.822;7.564;2023-06-10T16:37:52;29.80;72.90
4647;DHT22;2336;47.822;7.564;2023-06-10T16:40:19;29.70;71.10
4647;DHT22;2336;47.822;7.564;2023-06-10T16:42:46;29.60;71.50
4647;DHT22;2336;47.822;7.564;2023-06-10T16:45:14;29.50;70.30
4647;DHT22;2336;47.822;7.564;2023-06-10T16:47:40;29.40;70.80
4647;DHT22;2336;47.822;7.564;2023-06-10T16:50:08;29.40;70.90
4647;DHT22;2336;47.822;7.564;2023-06-10T16:52:35;29.50;69.80
4647;DHT22;2336;47.822;7.564;2023-06-10T16:55:01;29.50;70.40
4647;DHT22;2336;47.822;7.564;2023-06-10T16:57:28;29.50;70.60
4647;DHT22;2336;47.822;7.564;2023-06-10T16:59:55;29.60;72.20
4647;DHT22;2336;47.822;7.564;2023-06-10T17:02:23;29.70;81.80
4647;DHT22;2336;47.822;7.564;2023-06-10T17:04:51;29.50;84.50
4647;DHT22;2336;47.822;7.564;2023-06-10T17:07:18;29.40;83.60
4647;DHT22;2336;47.822;7.564;2023-06-10T17:09:45;29.20;83.10
4647;DHT22;2336;47.822;7.564;2023-06-10T17:12:12;29.00;83.30
4647;DHT22;2336;47.822;7.564;2023-06-10T17:14:39;28.80;84.90
4647;DHT22;2336;47.822;7.564;2023-06-10T17:17:06;28.70;86.70
4647;DHT22;2336;47.822;7.564;2023-06-10T17:19:34;28.70;88.80
4647;DHT22;2336;47.822;7.564;2023-06-10T17:22:00;28.70;87.00
4647;DHT22;2336;47.822;7.564;2023-06-10T17:24:27;28.80;85.40
4647;DHT22;2336;47.822;7.564;2023-06-10T17:26:54;28.90;80.20
4647;DHT22;2336;47.822;7.564;2023-06-10T17:29:20;29.00;80.70
4647;DHT22;2336;47.822;7.564;2023-06-10T17:31:47;29.10;82.50
4647;DHT22;2336;47.822;7.564;2023-06-10T17:34:14;29.00;87.80
4647;DHT22;2336;47.822;7.564;2023-06-10T17:36:42;28.80;90.10
4647;DHT22;2336;47.822;7.564;2023-06-10T17:39:09;28.50;89.40
4647;DHT22;2336;47.822;7.564;2023-06-10T17:41:37;28.30;90.10
4647;DHT22;2336;47.822;7.564;2023-06-10T17:44:04;28.20;90.90
4647;DHT22;2336;47.822;7.564;2023-06-10T17:46:31;28.00;91.10
4647;DHT22;2336;47.822;7.564;2023-06-10T17:48:57;27.90;91.60
4647;DHT22;2336;47.822;7.564;2023-06-10T17:51:24;27.80;91.60
4647;DHT22;2336;47.822;7.564;2023-06-10T17:53:52;27.70;92.00
4647;DHT22;2336;47.822;7.564;2023-06-10T17:56:19;27.60;92.20
4647;DHT22;2336;47.822;7.564;2023-06-10T17:58:46;27.40;93.00
4647;DHT22;2336;47.822;7.564;2023-06-10T18:01:12;27.30;93.20
4647;DHT22;2336;47.822;7.564;2023-06-10T18:03:39;27.20;93.40
4647;DHT22;2336;47.822;7.564;2023-06-10T18:06:06;27.10;93.30
4647;DHT22;2336;47.822;7.564;2023-06-10T18:08:32;27.00;93.90
4647;DHT22;2336;47.822;7.564;2023-06-10T18:11:01;26.90;93.60
4647;DHT22;2336;47.822;7.564;2023-06-10T18:13:28;26.90;93.90
4647;DHT22;2336;47.822;7.564;2023-06-10T18:15:55;26.80;93.30
4647;DHT22;2336;47.822;7.564;2023-06-10T18:18:22;26.80;93.90
4647;DHT22;2336;47.822;7.564;2023-06-10T18:20:49;26.80;94.30
4647;DHT22;2336;47.822;7.564;2023-06-10T18:23:16;26.80;94.30
4647;DHT22;2336;47.822;7.564;2023-06-10T18:25:43;26.70;94.30
4647;DHT22;2336;47.822;7.564;2023-06-10T18:28:11;26.60;94.60
4647;DHT22;2336;47.822;7.564;2023-06-10T18:30:37;26.50;95.00
4647;DHT22;2336;47.822;7.564;2023-06-10T18:33:04;26.50;94.80
4647;DHT22;2336;47.822;7.564;2023-06-10T18:35:31;26.40;94.80
4647;DHT22;2336;47.822;7.564;2023-06-10T18:37:57;26.30;94.70
4647;DHT22;2336;47.822;7.564;2023-06-10T18:40:24;26.20;94.20
4647;DHT22;2336;47.822;7.564;2023-06-10T18:42:51;26.10;94.20
4647;DHT22;2336;47.822;7.564;2023-06-10T18:45:19;26.00;94.40
4647;DHT22;2336;47.822;7.564;2023-06-10T18:47:46;25.90;94.60
4647;DHT22;2336;47.822;7.564;2023-06-10T18:50:12;25.80;94.80
4647;DHT22;2336;47.822;7.564;2023-06-10T18:52:39;25.80;95.20
4647;DHT22;2336;47.822;7.564;2023-06-10T18:55:06;25.80;95.40
4647;DHT22;2336;47.822;7.564;2023-06-10T18:57:33;25.70;95.00
4647;DHT22;2336;47.822;7.564;2023-06-10T19:00:00;25.60;95.00
4647;DHT22;2336;47.822;7.564;2023-06-10T19:02:29;25.60;95.70
4647;DHT22;2336;47.822;7.564;2023-06-10T19:04:56;25.60;95.70
4647;DHT22;2336;47.822;7.564;2023-06-10T19:07:22;25.50;96.40
4647;DHT22;2336;47.822;7.564;2023-06-10T19:09:49;25.50;96.10
4647;DHT22;2336;47.822;7.564;2023-06-10T19:12:16;25.40;96.20
4647;DHT22;2336;47.822;7.564;2023-06-10T19:14:43;25.40;96.00
4647;DHT22;2336;47.822;7.564;2023-06-10T19:17:09;25.40;95.90
4647;DHT22;2336;47.822;7.564;2023-06-10T19:19:37;25.30;95.50
4647;DHT22;2336;47.822;7.564;2023-06-10T19:22:05;25.30;94.10
4647;DHT22;2336;47.822;7.564;2023-06-10T19:24:31;25.30;92.90
4647;DHT22;2336;47.822;7.564;2023-06-10T19:26:58;25.30;92.80
4647;DHT22;2336;47.822;7.564;2023-06-10T19:29:25;25.20;92.90
4647;DHT22;2336;47.822;7.564;2023-06-10T19:31:52;25.20;92.40
4647;DHT22;2336;47.822;7.564;2023-06-10T19:34:19;25.20;92.20
4647;DHT22;2336;47.822;7.564;2023-06-10T19:36:47;25.10;92.00
4647;DHT22;2336;47.822;7.564;2023-06-10T19:39:14;25.10;92.00
4647;DHT22;2336;47.822;7.564;2023-06-10T19:41:41;25.10;91.40
4647;DHT22;2336;47.822;7.564;2023-06-10T19:44:08;25.10;91.70
4647;DHT22;2336;47.822;7.564;2023-06-10T19:46:34;25.00;91.10
4647;DHT22;2336;47.822;7.564;2023-06-10T19:49:01;25.00;90.90
4647;DHT22;2336;47.822;7.564;2023-06-10T19:51:28;25.00;91.00
4647;DHT22;2336;47.822;7.564;2023-06-10T19:53:56;24.90;91.30
4647;DHT22;2336;47.822;7.564;2023-06-10T19:56:23;24.90;91.70